sensor_id;sensor_type;location;lat;lon;timestamp;temperature;humidity
2851;DHT22;1433;49.976;8.342;2024-03-22T00:01:12;8.50;99.90
2851;DHT22;1433;49.976;8.342;2024-03-22T00:03:38;8.40;99.90
2851;DHT22;1433;49.976;8.342;2024-03-22T00:06:04;8.40;99.90
2851;DHT22;1433;49.976;8.342;2024-03-22T00:08:30;8.30;99.90
2851;DHT22;1433;49.976;8.342;2024-03-22T00:10:55;8.50;99.90
2851;DHT22;1433;49.976;8.342;2024-03-22T00:13:21;8.30;99.90
2851;DHT22;1433;49.976;8.342;2024-03-22T00:15:47;8.20;99.90
2851;DHT22;1433;49.976;8.342;2024-03-22T00:18:13;8.30;99.90
2851;DHT22;1433;49.976;8.342;2024-03-22T00:20:38;8.20;99.90
2851;DHT22;1433;49.976;8.342;2024-03-22T00:23:04;8.10;99.90
2851;DHT22;1433;49.976;8.342;2024-03-22T00:25:31;8.10;99.90
2851;DHT22;1433;49.976;8.342;2024-03-22T00:27:57;8.00;99.90
2851;DHT22;1433;49.976;8.342;2024-03-22T00:30:22;8.00;99.90
2851;DHT22;1433;49.976;8.342;2024-03-22T00:32:48;7.70;99.90
2851;DHT22;1433;49.976;8.342;2024-03-22T00:35:14;7.60;99.90
2851;DHT22;1433;49.976;8.342;2024-03-22T00:37:40;7.50;99.90
2851;DHT22;1433;49.976;8.342;2024-03-22T00:40:06;7.40;99.90
2851;DHT22;1433;49.976;8.342;2024-03-22T00:42:32;7.40;99.90
2851;DHT22;1433;49.976;8.342;2024-03-22T00:44:58;7.40;99.90
2851;DHT22;1433;49.976;8.342;2024-03-22T00:47:24;7.40;99.90
2851;DHT22;1433;49.976;8.342;2024-03-22T00:49:50;7.30;99.90
2851;DHT22;1433;49.976;8.342;2024-03-22T00:52:15;7.30;99.90
2851;DHT22;1433;49.976;8.342;2024-03-22T00:54:41;7.30;99.90
2851;DHT22;1433;49.976;8.342;2024-03-22T00:57:07;7.30;99.90
2851;DHT22;1433;49.976;8.342;2024-03-22T00:59:33;7.30;99.90
2851;DHT22;1433;49.976;8.342;2024-03-22T01:01:58;7.30;99.90
2851;DHT22;1433;49.976;8.342;2024-03-22T01:04:24;7.30;99.90
2851;DHT22;1433;49.976;8.342;2024-03-22T01:06:50;7.30;99.90
2851;DHT22;1433;49.976;8.342;2024-03-22T01:09:16;7.30;99.90
2851;DHT22;1433;49.976;8.342;2024-03-22T01:11:41;7.30;99.90
2851;DHT22;1433;49.976;8.342;2024-03-22T01:14:07;7.20;99.90
2851;DHT22;1433;49.976;8.342;2024-03-22T01:16:34;7.20;99.90
2851;DHT22;1433;49.976;8.342;2024-03-22T01:19:00;7.10;99.90
2851;DHT22;1433;49.976;8.342;2024-03-22T01:21:25;7.20;99.90
2851;DHT22;1433;49.976;8.342;2024-03-22T01:23:52;7.10;99.90
2851;DHT22;1433;49.976;8.342;2024-03-22T01:26:18;7.00;99.90
2851;DHT22;1433;49.976;8.342;2024-03-22T01:28:43;7.00;99.90
2851;DHT22;1433;49.976;8.342;2024-03-22T01:31:09;6.90;99.90
2851;DHT22;1433;49.976;8.342;2024-03-22T01:33:35;7.00;99.90
2851;DHT22;1433;49.976;8.342;2024-03-22T01:36:01;6.90;99.90
2851;DHT22;1433;49.976;8.342;2024-03-22T01:38:26;6.80;99.90
2851;DHT22;1433;49.976;8.342;2024-03-22T01:40:52;6.80;99.90
2851;DHT22;1433;49.976;8.342;2024-03-22T01:43:18;6.70;99.90
2851;DHT22;1433;49.976;8.342;2024-03-22T01:45:44;6.60;99.90
2851;DHT22;1433;49.976;8.342;2024-03-22T01:48:10;6.60;99.90
2851;DHT22;1433;49.976;8.342;2024-03-22T01:50:37;6.50;99.90
2851;DHT22;1433;49.976;8.342;2024-03-22T01:53:03;6.60;99.90
2851;DHT22;1433;49.976;8.342;2024-03-22T01:55:30;6.40;99.90
2851;DHT22;1433;49.976;8.342;2024-03-22T01:57:56;6.40;99.90
2851;DHT22;1433;49.976;8.342;2024-03-22T02:00:23;6.40;99.90
2851;DHT22;1433;49.976;8.342;2024-03-22T02:02:48;6.40;99.90
2851;DHT22;1433;49.976;8.342;2024-03-22T02:05:15;6.30;99.90
2851;DHT22;1433;49.976;8.342;2024-03-22T02:07:45;6.30;99.90
2851;DHT22;1433;49.976;8.342;2024-03-22T02:10:11;6.30;99.90
2851;DHT22;1433;49.976;8.342;2024-03-22T02:12:38;6.30;99.90
2851;DHT22;1433;49.976;8.342;2024-03-22T02:15:04;6.30;99.90
2851;DHT22;1433;49.976;8.342;2024-03-22T02:17:31;6.30;99.90
2851;DHT22;1433;49.976;8.342;2024-03-22T02:19:57;6.20;99.90
2851;DHT22;1433;49.976;8.342;2024-03-22T02:22:23;6.30;99.90
2851;DHT22;1433;49.976;8.342;2024-03-22T02:24:49;6.30;99.90
2851;DHT22;1433;49.976;8.342;2024-03-22T02:27:14;6.30;99.90
2851;DHT22;1433;49.976;8.342;2024-03-22T02:29:40;6.30;99.90
2851;DHT22;1433;49.976;8.342;2024-03-22T02:32:06;6.30;99.90
2851;DHT22;1433;49.976;8.342;2024-03-22T02:34:32;6.20;99.90
2851;DHT22;1433;49.976;8.342;2024-03-22T02:36:57;6.20;99.90
2851;DHT22;1433;49.976;8.342;2024-03-22T02:39:23;6.20;99.90
2851;DHT22;1433;49.976;8.342;2024-03-22T02:41:54;6.20;99.90
2851;DHT22;1433;49.976;8.342;2024-03-22T02:44:20;6.10;99.90
2851;DHT22;1433;49.976;8.342;2024-03-22T02:46:46;6.10;99.90
2851;DHT22;1433;49.976;8.342;2024-03-22T02:49:12;6.20;99.90
2851;DHT22;1433;49.976;8.342;2024-03-22T02:51:38;6.10;99.90
2851;DHT22;1433;49.976;8.342;2024-03-22T02:54:05;6.10;99.90
2851;DHT22;1433;49.976;8.342;2024-03-22T02:56:31;6.10;99.90
2851;DHT22;1433;49.976;8.342;2024-03-22T02:58:57;6.00;99.90
2851;DHT22;1433;49.976;8.342;2024-03-22T03:01:23;6.10;99.90
2851;DHT22;1433;49.976;8.342;2024-03-22T03:03:48;6.00;99.90
2851;DHT22;1433;49.976;8.342;2024-03-22T03:06:14;6.00;99.90
2851;DHT22;1433;49.976;8.342;2024-03-22T03:08:40;6.00;99.90
2851;DHT22;1433;49.976;8.342;2024-03-22T03:11:06;6.10;99.90
2851;DHT22;1433;49.976;8.342;2024-03-22T03:13:32;6.10;99.90
2851;DHT22;1433;49.976;8.342;2024-03-22T03:15:57;6.10;99.90
2851;DHT22;1433;49.976;8.342;2024-03-22T03:18:23;6.20;99.90
2851;DHT22;1433;49.976;8.342;2024-03-22T03:20:49;6.20;99.90
2851;DHT22;1433;49.976;8.342;2024-03-22T03:23:15;6.30;99.90
2851;DHT22;1433;49.976;8.342;2024-03-22T03:25:41;6.30;99.90
2851;DHT22;1433;49.976;8.342;2024-03-22T03:28:07;6.30;99.90
2851;DHT22;1433;49.976;8.342;2024-03-22T03:30:36;6.30;99.90
2851;DHT22;1433;49.976;8.342;2024-03-22T03:33:01;6.30;99.90
2851;DHT22;1433;49.976;8.342;2024-03-22T03:35:27;6.40;99.90
2851;DHT22;1433;49.976;8.342;2024-03-22T03:37:57;6.50;99.90
2851;DHT22;1433;49.976;8.342;2024-03-22T03:40:23;6.50;99.90
2851;DHT22;1433;49.976;8.342;2024-03-22T03:42:50;6.60;99.90
2851;DHT22;1433;49.976;8.342;2024-03-22T03:45:16;6.70;99.90
2851;DHT22;1433;49.976;8.342;2024-03-22T03:47:42;6.70;99.90
2851;DHT22;1433;49.976;8.342;2024-03-22T03:50:08;6.80;99.90
2851;DHT22;1433;49.976;8.342;2024-03-22T03:52:34;6.80;99.90
2851;DHT22;1433;49.976;8.342;2024-03-22T03:55:00;6.80;99.90
2851;DHT22;1433;49.976;8.342;2024-03-22T03:57:25;6.90;99.90
2851;DHT22;1433;49.976;8.342;2024-03-22T03:59:51;6.90;99.90
2851;DHT22;1433;49.976;8.342;2024-03-22T04:02:17;6.90;99.90
2851;DHT22;1433;49.976;8.342;2024-03-22T04:04:43;6.90;99.90
2851;DHT22;1433;49.976;8.342;2024-03-22T04:07:09;6.90;99.90
2851;DHT22;1433;49.976;8.342;2024-03-22T04:09:34;6.90;99.90
2851;DHT22;1433;49.976;8.342;2024-03-22T04:12:00;7.00;99.90
2851;DHT22;1433;49.976;8.342;2024-03-22T04:14:27;7.00;99.90
2851;DHT22;1433;49.976;8.342;2024-03-22T04:16:53;7.00;99.90
2851;DHT22;1433;49.976;8.342;2024-03-22T04:19:21;7.10;99.90
2851;DHT22;1433;49.976;8.342;2024-03-22T04:21:49;7.10;99.90
2851;DHT22;1433;49.976;8.342;2024-03-22T04:24:15;7.10;99.90
2851;DHT22;1433;49.976;8.342;2024-03-22T04:26:41;7.30;99.90
2851;DHT22;1433;49.976;8.342;2024-03-22T04:29:06;7.20;99.90
2851;DHT22;1433;49.976;8.342;2024-03-22T04:31:32;7.20;99.90
2851;DHT22;1433;49.976;8.342;2024-03-22T04:33:58;7.20;99.90
2851;DHT22;1433;49.976;8.342;2024-03-22T04:36:23;7.30;99.90
2851;DHT22;1433;49.976;8.342;2024-03-22T04:38:49;7.30;99.90
2851;DHT22;1433;49.976;8.342;2024-03-22T04:41:15;7.30;99.90
2851;DHT22;1433;49.976;8.342;2024-03-22T04:43:41;7.40;99.90
2851;DHT22;1433;49.976;8.342;2024-03-22T04:46:06;7.40;99.90
2851;DHT22;1433;49.976;8.342;2024-03-22T04:48:32;7.30;99.90
2851;DHT22;1433;49.976;8.342;2024-03-22T04:50:58;7.30;99.90
2851;DHT22;1433;49.976;8.342;2024-03-22T04:53:23;7.30;99.90
2851;DHT22;1433;49.976;8.342;2024-03-22T04:55:50;7.30;99.90
2851;DHT22;1433;49.976;8.342;2024-03-22T04:58:20;7.30;99.90
2851;DHT22;1433;49.976;8.342;2024-03-22T05:00:55;7.20;99.90
2851;DHT22;1433;49.976;8.342;2024-03-22T05:03:21;7.20;99.90
2851;DHT22;1433;49.976;8.342;2024-03-22T05:05:47;7.20;99.90
2851;DHT22;1433;49.976;8.342;2024-03-22T05:08:12;7.20;99.90
2851;DHT22;1433;49.976;8.342;2024-03-22T05:10:38;7.40;99.90
2851;DHT22;1433;49.976;8.342;2024-03-22T05:13:03;7.20;99.90
2851;DHT22;1433;49.976;8.342;2024-03-22T05:15:29;7.10;99.90
2851;DHT22;1433;49.976;8.342;2024-03-22T05:17:57;7.00;99.90
2851;DHT22;1433;49.976;8.342;2024-03-22T05:20:23;7.00;99.90
2851;DHT22;1433;49.976;8.342;2024-03-22T05:22:48;7.00;99.90
2851;DHT22;1433;49.976;8.342;2024-03-22T05:25:14;7.00;99.90
2851;DHT22;1433;49.976;8.342;2024-03-22T05:27:41;7.00;99.90
2851;DHT22;1433;49.976;8.342;2024-03-22T05:30:11;7.10;99.90
2851;DHT22;1433;49.976;8.342;2024-03-22T05:32:37;7.10;99.90
2851;DHT22;1433;49.976;8.342;2024-03-22T05:35:04;7.10;99.90
2851;DHT22;1433;49.976;8.342;2024-03-22T05:37:30;7.10;99.90
2851;DHT22;1433;49.976;8.342;2024-03-22T05:39:55;7.00;99.90
2851;DHT22;1433;49.976;8.342;2024-03-22T05:42:21;7.10;99.90
2851;DHT22;1433;49.976;8.342;2024-03-22T05:44:48;7.20;99.90
2851;DHT22;1433;49.976;8.342;2024-03-22T05:47:13;7.40;99.90
2851;DHT22;1433;49.976;8.342;2024-03-22T05:49:39;7.50;99.90
2851;DHT22;1433;49.976;8.342;2024-03-22T05:52:05;7.60;99.90
2851;DHT22;1433;49.976;8.342;2024-03-22T05:54:31;7.70;99.90
2851;DHT22;1433;49.976;8.342;2024-03-22T05:56:56;7.90;99.90
2851;DHT22;1433;49.976;8.342;2024-03-22T05:59:22;8.00;99.90
2851;DHT22;1433;49.976;8.342;2024-03-22T06:01:48;8.10;99.90
2851;DHT22;1433;49.976;8.342;2024-03-22T06:04:14;8.20;99.90
2851;DHT22;1433;49.976;8.342;2024-03-22T06:06:39;8.30;99.90
2851;DHT22;1433;49.976;8.342;2024-03-22T06:09:05;8.40;99.90
2851;DHT22;1433;49.976;8.342;2024-03-22T06:11:36;8.50;99.90
2851;DHT22;1433;49.976;8.342;2024-03-22T06:14:02;8.60;99.90
2851;DHT22;1433;49.976;8.342;2024-03-22T06:16:28;8.70;99.90
2851;DHT22;1433;49.976;8.342;2024-03-22T06:18:54;8.70;99.90
2851;DHT22;1433;49.976;8.342;2024-03-22T06:21:19;8.70;99.90
2851;DHT22;1433;49.976;8.342;2024-03-22T06:23:51;8.80;99.90
2851;DHT22;1433;49.976;8.342;2024-03-22T06:26:17;8.90;99.90
2851;DHT22;1433;49.976;8.342;2024-03-22T06:28:43;9.00;99.90
2851;DHT22;1433;49.976;8.342;2024-03-22T06:31:09;9.00;99.90
2851;DHT22;1433;49.976;8.342;2024-03-22T06:33:35;9.10;99.90
2851;DHT22;1433;49.976;8.342;2024-03-22T06:36:02;9.10;99.90
2851;DHT22;1433;49.976;8.342;2024-03-22T06:38:29;9.20;99.90
2851;DHT22;1433;49.976;8.342;2024-03-22T06:40:54;9.20;99.90
2851;DHT22;1433;49.976;8.342;2024-03-22T06:43:20;9.30;99.90
2851;DHT22;1433;49.976;8.342;2024-03-22T06:45:46;9.40;99.90
2851;DHT22;1433;49.976;8.342;2024-03-22T06:48:11;9.50;99.90
2851;DHT22;1433;49.976;8.342;2024-03-22T06:50:37;9.50;99.90
2851;DHT22;1433;49.976;8.342;2024-03-22T06:53:03;9.60;99.90
2851;DHT22;1433;49.976;8.342;2024-03-22T06:55:28;9.70;99.90
2851;DHT22;1433;49.976;8.342;2024-03-22T06:57:54;9.70;99.90
2851;DHT22;1433;49.976;8.342;2024-03-22T07:00:20;9.80;99.90
2851;DHT22;1433;49.976;8.342;2024-03-22T07:02:46;9.80;99.90
2851;DHT22;1433;49.976;8.342;2024-03-22T07:05:11;9.90;99.90
2851;DHT22;1433;49.976;8.342;2024-03-22T07:07:38;10.00;99.90
2851;DHT22;1433;49.976;8.342;2024-03-22T07:10:04;10.10;99.90
2851;DHT22;1433;49.976;8.342;2024-03-22T07:12:33;10.20;99.90
2851;DHT22;1433;49.976;8.342;2024-03-22T07:15:02;10.30;99.90
2851;DHT22;1433;49.976;8.342;2024-03-22T07:17:28;10.40;99.90
2851;DHT22;1433;49.976;8.342;2024-03-22T07:19:54;10.50;99.90
2851;DHT22;1433;49.976;8.342;2024-03-22T07:22:21;10.40;99.90
2851;DHT22;1433;49.976;8.342;2024-03-22T07:24:48;10.60;99.90
2851;DHT22;1433;49.976;8.342;2024-03-22T07:27:15;10.50;99.90
2851;DHT22;1433;49.976;8.342;2024-03-22T07:29:41;10.60;99.90
2851;DHT22;1433;49.976;8.342;2024-03-22T07:32:06;10.70;99.90
2851;DHT22;1433;49.976;8.342;2024-03-22T07:34:32;10.70;99.90
2851;DHT22;1433;49.976;8.342;2024-03-22T07:36:59;10.70;99.90
2851;DHT22;1433;49.976;8.342;2024-03-22T07:39:24;10.70;99.90
2851;DHT22;1433;49.976;8.342;2024-03-22T07:41:50;10.80;99.90
2851;DHT22;1433;49.976;8.342;2024-03-22T07:44:17;10.80;99.90
2851;DHT22;1433;49.976;8.342;2024-03-22T07:46:46;10.90;99.90
2851;DHT22;1433;49.976;8.342;2024-03-22T07:49:12;10.90;23.20
2851;DHT22;1433;49.976;8.342;2024-03-22T07:51:39;11.10;66.50
2851;DHT22;1433;49.976;8.342;2024-03-22T07:54:05;11.20;51.90
2851;DHT22;1433;49.976;8.342;2024-03-22T07:56:30;11.30;46.20
2851;DHT22;1433;49.976;8.342;2024-03-22T07:58:56;11.30;29.00
2851;DHT22;1433;49.976;8.342;2024-03-22T08:01:22;11.30;1.00
2851;DHT22;1433;49.976;8.342;2024-03-22T08:03:49;11.20;1.00
2851;DHT22;1433;49.976;8.342;2024-03-22T08:06:17;11.30;1.00
2851;DHT22;1433;49.976;8.342;2024-03-22T08:08:43;11.50;1.00
2851;DHT22;1433;49.976;8.342;2024-03-22T08:11:09;11.60;1.00
2851;DHT22;1433;49.976;8.342;2024-03-22T08:13:35;11.60;1.00
2851;DHT22;1433;49.976;8.342;2024-03-22T08:16:00;11.60;1.00
2851;DHT22;1433;49.976;8.342;2024-03-22T08:18:26;11.60;1.00
2851;DHT22;1433;49.976;8.342;2024-03-22T08:20:52;11.60;1.00
2851;DHT22;1433;49.976;8.342;2024-03-22T08:23:17;11.80;1.00
2851;DHT22;1433;49.976;8.342;2024-03-22T08:25:46;11.80;1.00
2851;DHT22;1433;49.976;8.342;2024-03-22T08:28:11;11.90;1.00
2851;DHT22;1433;49.976;8.342;2024-03-22T08:30:39;12.10;1.00
2851;DHT22;1433;49.976;8.342;2024-03-22T08:33:05;12.10;1.00
2851;DHT22;1433;49.976;8.342;2024-03-22T08:35:31;12.30;1.00
2851;DHT22;1433;49.976;8.342;2024-03-22T08:37:57;12.40;1.00
2851;DHT22;1433;49.976;8.342;2024-03-22T08:40:24;12.40;1.00
2851;DHT22;1433;49.976;8.342;2024-03-22T08:42:50;12.60;1.00
2851;DHT22;1433;49.976;8.342;2024-03-22T08:45:15;12.50;1.00
2851;DHT22;1433;49.976;8.342;2024-03-22T08:47:43;12.70;1.00
2851;DHT22;1433;49.976;8.342;2024-03-22T08:50:11;12.90;1.00
2851;DHT22;1433;49.976;8.342;2024-03-22T08:52:37;13.00;99.90
2851;DHT22;1433;49.976;8.342;2024-03-22T08:55:04;13.10;99.90
2851;DHT22;1433;49.976;8.342;2024-03-22T08:57:32;13.20;99.90
2851;DHT22;1433;49.976;8.342;2024-03-22T08:59:58;13.30;90.20
2851;DHT22;1433;49.976;8.342;2024-03-22T09:02:24;13.40;99.90
2851;DHT22;1433;49.976;8.342;2024-03-22T09:04:51;13.50;1.00
2851;DHT22;1433;49.976;8.342;2024-03-22T09:07:18;13.70;99.90
2851;DHT22;1433;49.976;8.342;2024-03-22T09:09:44;13.90;1.00
2851;DHT22;1433;49.976;8.342;2024-03-22T09:12:10;13.90;1.00
2851;DHT22;1433;49.976;8.342;2024-03-22T09:14:36;14.10;99.90
2851;DHT22;1433;49.976;8.342;2024-03-22T09:17:02;14.20;1.00
2851;DHT22;1433;49.976;8.342;2024-03-22T09:19:28;14.40;1.00
2851;DHT22;1433;49.976;8.342;2024-03-22T09:21:53;14.50;99.90
2851;DHT22;1433;49.976;8.342;2024-03-22T09:24:19;14.60;95.60
2851;DHT22;1433;49.976;8.342;2024-03-22T09:26:45;14.70;99.90
2851;DHT22;1433;49.976;8.342;2024-03-22T09:29:13;14.70;68.20
2851;DHT22;1433;49.976;8.342;2024-03-22T09:31:38;14.80;1.00
2851;DHT22;1433;49.976;8.342;2024-03-22T09:34:04;15.00;1.00
2851;DHT22;1433;49.976;8.342;2024-03-22T09:36:31;15.30;99.90
2851;DHT22;1433;49.976;8.342;2024-03-22T09:39:01;15.50;99.90
2851;DHT22;1433;49.976;8.342;2024-03-22T09:41:27;15.60;1.00
2851;DHT22;1433;49.976;8.342;2024-03-22T09:43:57;15.90;99.90
2851;DHT22;1433;49.976;8.342;2024-03-22T09:46:24;16.00;1.00
2851;DHT22;1433;49.976;8.342;2024-03-22T09:48:52;16.30;1.00
2851;DHT22;1433;49.976;8.342;2024-03-22T09:51:19;16.50;1.00
2851;DHT22;1433;49.976;8.342;2024-03-22T09:53:45;16.50;1.00
2851;DHT22;1433;49.976;8.342;2024-03-22T09:56:14;16.60;1.00
2851;DHT22;1433;49.976;8.342;2024-03-22T09:58:44;16.50;99.90
2851;DHT22;1433;49.976;8.342;2024-03-22T10:01:11;16.50;99.90
2851;DHT22;1433;49.976;8.342;2024-03-22T10:03:37;16.20;21.30
2851;DHT22;1433;49.976;8.342;2024-03-22T10:06:05;16.20;99.90
2851;DHT22;1433;49.976;8.342;2024-03-22T10:08:31;16.30;1.00
2851;DHT22;1433;49.976;8.342;2024-03-22T10:10:57;16.70;1.00
2851;DHT22;1433;49.976;8.342;2024-03-22T10:13:23;16.70;99.90
2851;DHT22;1433;49.976;8.342;2024-03-22T10:15:49;16.80;99.90
2851;DHT22;1433;49.976;8.342;2024-03-22T10:18:15;16.60;1.00
2851;DHT22;1433;49.976;8.342;2024-03-22T10:20:41;16.50;86.20
2851;DHT22;1433;49.976;8.342;2024-03-22T10:23:08;16.60;25.50
2851;DHT22;1433;49.976;8.342;2024-03-22T10:25:34;16.70;26.90
2851;DHT22;1433;49.976;8.342;2024-03-22T10:28:01;17.10;1.00
2851;DHT22;1433;49.976;8.342;2024-03-22T10:30:27;17.30;1.00
2851;DHT22;1433;49.976;8.342;2024-03-22T10:32:53;17.40;1.00
2851;DHT22;1433;49.976;8.342;2024-03-22T10:35:20;17.60;1.00
2851;DHT22;1433;49.976;8.342;2024-03-22T10:37:46;17.60;1.00
2851;DHT22;1433;49.976;8.342;2024-03-22T10:40:12;17.30;1.00
2851;DHT22;1433;49.976;8.342;2024-03-22T10:42:39;17.30;1.00
2851;DHT22;1433;49.976;8.342;2024-03-22T10:45:06;17.20;1.00
2851;DHT22;1433;49.976;8.342;2024-03-22T10:47:34;17.50;1.00
2851;DHT22;1433;49.976;8.342;2024-03-22T10:50:06;17.60;1.00
2851;DHT22;1433;49.976;8.342;2024-03-22T10:52:47;17.50;1.00
2851;DHT22;1433;49.976;8.342;2024-03-22T10:55:19;17.60;1.00
2851;DHT22;1433;49.976;8.342;2024-03-22T10:57:45;17.50;1.00
2851;DHT22;1433;49.976;8.342;2024-03-22T11:00:12;17.60;1.00
2851;DHT22;1433;49.976;8.342;2024-03-22T11:02:39;17.50;1.00
2851;DHT22;1433;49.976;8.342;2024-03-22T11:05:16;17.40;1.00
2851;DHT22;1433;49.976;8.342;2024-03-22T11:07:44;17.40;1.00
2851;DHT22;1433;49.976;8.342;2024-03-22T11:10:11;18.00;1.00
2851;DHT22;1433;49.976;8.342;2024-03-22T11:12:38;19.10;1.00
2851;DHT22;1433;49.976;8.342;2024-03-22T11:15:05;20.10;1.00
2851;DHT22;1433;49.976;8.342;2024-03-22T11:17:31;20.30;1.00
2851;DHT22;1433;49.976;8.342;2024-03-22T11:19:57;20.10;1.00
2851;DHT22;1433;49.976;8.342;2024-03-22T11:22:25;20.00;1.00
2851;DHT22;1433;49.976;8.342;2024-03-22T11:24:52;19.60;1.00
2851;DHT22;1433;49.976;8.342;2024-03-22T11:27:18;19.50;1.00
2851;DHT22;1433;49.976;8.342;2024-03-22T11:29:45;19.20;1.00
2851;DHT22;1433;49.976;8.342;2024-03-22T11:32:13;19.20;1.00
2851;DHT22;1433;49.976;8.342;2024-03-22T11:34:39;18.90;1.00
2851;DHT22;1433;49.976;8.342;2024-03-22T11:37:07;18.80;99.90
2851;DHT22;1433;49.976;8.342;2024-03-22T11:39:36;18.70;99.90
2851;DHT22;1433;49.976;8.342;2024-03-22T11:42:04;18.50;1.00
2851;DHT22;1433;49.976;8.342;2024-03-22T11:44:32;18.30;99.90
2851;DHT22;1433;49.976;8.342;2024-03-22T11:46:58;18.20;1.00
2851;DHT22;1433;49.976;8.342;2024-03-22T11:49:24;18.20;99.90
2851;DHT22;1433;49.976;8.342;2024-03-22T11:51:52;18.70;1.00
2851;DHT22;1433;49.976;8.342;2024-03-22T11:54:20;19.20;1.00
2851;DHT22;1433;49.976;8.342;2024-03-22T11:56:46;19.40;1.00
2851;DHT22;1433;49.976;8.342;2024-03-22T11:59:12;19.60;1.00
2851;DHT22;1433;49.976;8.342;2024-03-22T12:01:38;20.10;1.00
2851;DHT22;1433;49.976;8.342;2024-03-22T12:04:04;20.70;1.00
2851;DHT22;1433;49.976;8.342;2024-03-22T12:06:30;20.50;1.00
2851;DHT22;1433;49.976;8.342;2024-03-22T12:08:56;20.30;1.00
2851;DHT22;1433;49.976;8.342;2024-03-22T12:11:22;19.80;1.00
2851;DHT22;1433;49.976;8.342;2024-03-22T12:13:47;19.70;1.00
2851;DHT22;1433;49.976;8.342;2024-03-22T12:16:13;19.40;1.00
2851;DHT22;1433;49.976;8.342;2024-03-22T12:18:39;19.70;1.00
2851;DHT22;1433;49.976;8.342;2024-03-22T12:21:05;19.50;1.00
2851;DHT22;1433;49.976;8.342;2024-03-22T12:23:30;19.30;1.00
2851;DHT22;1433;49.976;8.342;2024-03-22T12:25:57;19.20;1.00
2851;DHT22;1433;49.976;8.342;2024-03-22T12:28:23;19.10;1.00
2851;DHT22;1433;49.976;8.342;2024-03-22T12:30:52;18.90;1.00
2851;DHT22;1433;49.976;8.342;2024-03-22T12:33:18;19.00;1.00
2851;DHT22;1433;49.976;8.342;2024-03-22T12:35:44;19.50;1.00
2851;DHT22;1433;49.976;8.342;2024-03-22T12:38:10;19.50;1.00
2851;DHT22;1433;49.976;8.342;2024-03-22T12:40:37;19.50;1.00
2851;DHT22;1433;49.976;8.342;2024-03-22T12:43:04;19.30;1.00
2851;DHT22;1433;49.976;8.342;2024-03-22T12:45:29;19.10;1.00
2851;DHT22;1433;49.976;8.342;2024-03-22T12:47:55;19.00;1.00
2851;DHT22;1433;49.976;8.342;2024-03-22T12:50:24;19.00;1.00
2851;DHT22;1433;49.976;8.342;2024-03-22T12:52:49;18.60;1.00
2851;DHT22;1433;49.976;8.342;2024-03-22T12:55:17;18.80;1.00
2851;DHT22;1433;49.976;8.342;2024-03-22T12:57:42;18.90;1.00
2851;DHT22;1433;49.976;8.342;2024-03-22T13:00:09;19.00;1.00
2851;DHT22;1433;49.976;8.342;2024-03-22T13:02:47;18.80;1.00
2851;DHT22;1433;49.976;8.342;2024-03-22T13:05:13;18.70;1.00
2851;DHT22;1433;49.976;8.342;2024-03-22T13:07:41;18.70;1.00
2851;DHT22;1433;49.976;8.342;2024-03-22T13:10:07;18.60;1.00
2851;DHT22;1433;49.976;8.342;2024-03-22T13:12:33;18.90;1.00
2851;DHT22;1433;49.976;8.342;2024-03-22T13:15:00;19.00;1.00
2851;DHT22;1433;49.976;8.342;2024-03-22T13:17:26;18.80;1.00
2851;DHT22;1433;49.976;8.342;2024-03-22T13:19:52;18.50;1.00
2851;DHT22;1433;49.976;8.342;2024-03-22T13:22:18;18.20;1.00
2851;DHT22;1433;49.976;8.342;2024-03-22T13:24:45;18.20;1.00
2851;DHT22;1433;49.976;8.342;2024-03-22T13:27:11;18.30;1.00
2851;DHT22;1433;49.976;8.342;2024-03-22T13:29:38;18.20;1.00
2851;DHT22;1433;49.976;8.342;2024-03-22T13:32:04;18.20;1.00
2851;DHT22;1433;49.976;8.342;2024-03-22T13:34:35;18.50;1.00
2851;DHT22;1433;49.976;8.342;2024-03-22T13:37:01;18.60;1.00
2851;DHT22;1433;49.976;8.342;2024-03-22T13:39:27;18.30;1.00
2851;DHT22;1433;49.976;8.342;2024-03-22T13:41:57;18.00;1.00
2851;DHT22;1433;49.976;8.342;2024-03-22T13:44:23;17.90;1.00
2851;DHT22;1433;49.976;8.342;2024-03-22T13:46:50;17.90;1.00
2851;DHT22;1433;49.976;8.342;2024-03-22T13:49:17;17.80;1.00
2851;DHT22;1433;49.976;8.342;2024-03-22T13:51:46;17.80;1.00
2851;DHT22;1433;49.976;8.342;2024-03-22T13:54:13;17.90;1.00
2851;DHT22;1433;49.976;8.342;2024-03-22T13:56:39;18.00;1.00
2851;DHT22;1433;49.976;8.342;2024-03-22T13:59:05;17.80;1.00
2851;DHT22;1433;49.976;8.342;2024-03-22T14:01:32;17.80;1.00
2851;DHT22;1433;49.976;8.342;2024-03-22T14:03:58;17.70;1.00
2851;DHT22;1433;49.976;8.342;2024-03-22T14:06:23;17.80;1.00
2851;DHT22;1433;49.976;8.342;2024-03-22T14:08:49;17.80;99.90
2851;DHT22;1433;49.976;8.342;2024-03-22T14:11:15;17.70;1.00
2851;DHT22;1433;49.976;8.342;2024-03-22T14:13:40;17.90;1.00
2851;DHT22;1433;49.976;8.342;2024-03-22T14:16:06;18.00;99.90
2851;DHT22;1433;49.976;8.342;2024-03-22T14:18:33;18.00;99.90
2851;DHT22;1433;49.976;8.342;2024-03-22T14:21:01;18.10;99.90
2851;DHT22;1433;49.976;8.342;2024-03-22T14:23:28;18.00;99.90
2851;DHT22;1433;49.976;8.342;2024-03-22T14:25:55;18.00;99.90
2851;DHT22;1433;49.976;8.342;2024-03-22T14:28:21;17.90;99.90
2851;DHT22;1433;49.976;8.342;2024-03-22T14:30:47;17.80;99.90
2851;DHT22;1433;49.976;8.342;2024-03-22T14:33:13;17.70;99.90
2851;DHT22;1433;49.976;8.342;2024-03-22T14:35:39;17.80;99.90
2851;DHT22;1433;49.976;8.342;2024-03-22T14:38:04;17.90;99.90
2851;DHT22;1433;49.976;8.342;2024-03-22T14:40:30;18.00;99.90
2851;DHT22;1433;49.976;8.342;2024-03-22T14:43:02;18.00;99.90
2851;DHT22;1433;49.976;8.342;2024-03-22T14:45:28;18.10;99.90
2851;DHT22;1433;49.976;8.342;2024-03-22T14:47:54;18.20;99.90
2851;DHT22;1433;49.976;8.342;2024-03-22T14:50:20;18.20;99.90
2851;DHT22;1433;49.976;8.342;2024-03-22T14:52:48;18.30;99.90
2851;DHT22;1433;49.976;8.342;2024-03-22T14:55:14;18.20;99.90
2851;DHT22;1433;49.976;8.342;2024-03-22T14:57:40;18.20;99.90
2851;DHT22;1433;49.976;8.342;2024-03-22T15:00:06;18.40;99.90
2851;DHT22;1433;49.976;8.342;2024-03-22T15:02:39;18.80;99.90
2851;DHT22;1433;49.976;8.342;2024-03-22T15:05:04;19.10;99.90
2851;DHT22;1433;49.976;8.342;2024-03-22T15:07:30;19.10;99.90
2851;DHT22;1433;49.976;8.342;2024-03-22T15:09:56;19.10;99.90
2851;DHT22;1433;49.976;8.342;2024-03-22T15:12:22;18.90;99.90
2851;DHT22;1433;49.976;8.342;2024-03-22T15:14:50;18.50;99.90
2851;DHT22;1433;49.976;8.342;2024-03-22T15:17:18;18.20;99.90
2851;DHT22;1433;49.976;8.342;2024-03-22T15:19:51;18.20;99.90
2851;DHT22;1433;49.976;8.342;2024-03-22T15:22:16;18.30;99.90
2851;DHT22;1433;49.976;8.342;2024-03-22T15:24:47;18.20;99.90
2851;DHT22;1433;49.976;8.342;2024-03-22T15:27:14;18.40;99.90
2851;DHT22;1433;49.976;8.342;2024-03-22T15:29:40;18.50;99.90
2851;DHT22;1433;49.976;8.342;2024-03-22T15:32:06;18.70;99.90
2851;DHT22;1433;49.976;8.342;2024-03-22T15:34:32;18.60;99.90
2851;DHT22;1433;49.976;8.342;2024-03-22T15:37:00;18.70;99.90
2851;DHT22;1433;49.976;8.342;2024-03-22T15:39:27;18.60;99.90
2851;DHT22;1433;49.976;8.342;2024-03-22T15:41:53;18.80;99.90
2851;DHT22;1433;49.976;8.342;2024-03-22T15:44:20;18.80;99.90
2851;DHT22;1433;49.976;8.342;2024-03-22T15:46:45;18.60;99.90
2851;DHT22;1433;49.976;8.342;2024-03-22T15:49:12;18.90;99.90
2851;DHT22;1433;49.976;8.342;2024-03-22T15:51:38;19.20;99.90
2851;DHT22;1433;49.976;8.342;2024-03-22T15:54:08;19.10;99.90
2851;DHT22;1433;49.976;8.342;2024-03-22T15:56:34;19.10;99.90
2851;DHT22;1433;49.976;8.342;2024-03-22T15:59:00;19.10;99.90
2851;DHT22;1433;49.976;8.342;2024-03-22T16:01:26;18.90;99.90
2851;DHT22;1433;49.976;8.342;2024-03-22T16:03:52;18.90;99.90
2851;DHT22;1433;49.976;8.342;2024-03-22T16:06:17;19.10;99.90
2851;DHT22;1433;49.976;8.342;2024-03-22T16:08:45;19.00;99.90